createdAt,value
2018-07-16T14:41:00.301Z,2028
2018-07-16T14:41:11.279Z,2062
2018-07-16T14:41:22.640Z,2076
2018-07-16T14:41:33.795Z,2100
2018-07-16T14:41:44.891Z,2109
2018-07-16T14:41:56.096Z,2130
2018-07-16T14:42:07.177Z,2168
2018-07-16T14:42:18.171Z,2176
2018-07-16T14:42:30.264Z,2212
2018-07-16T14:42:41.277Z,2229
2018-07-16T14:42:52.261Z,2246
2018-07-16T14:43:03.356Z,2262
2018-07-16T14:43:14.316Z,2293
2018-07-16T14:43:25.469Z,2324
2018-07-16T14:43:36.470Z,2339
2018-07-16T14:43:47.695Z,2351
2018-07-16T14:44:02.484Z,2371
2018-07-16T14:44:18.182Z,2394
2018-07-16T14:44:29.209Z,2413
2018-07-16T14:44:43.070Z,2448
2018-07-16T14:44:54.211Z,2465
2018-07-16T14:45:05.473Z,2475
2018-07-16T14:45:17.386Z,2493
2018-07-16T14:45:28.496Z,2506
2018-07-16T14:45:39.798Z,2521
2018-07-16T14:45:50.862Z,2533
2018-07-16T14:46:04.770Z,2555
2018-07-16T14:46:15.887Z,2573
2018-07-16T14:46:26.887Z,2588
2018-07-16T14:46:38.354Z,2584
2018-07-16T14:46:49.696Z,2613
2018-07-16T14:47:00.709Z,2636
2018-07-16T14:47:12.176Z,2663
2018-07-16T14:47:23.238Z,2686
2018-07-16T14:47:35.283Z,2710
2018-07-16T14:47:46.327Z,2752
2018-07-16T14:47:57.964Z,2773
2018-07-16T14:48:08.988Z,2776
2018-07-16T14:48:20.260Z,2816
2018-07-16T14:48:31.369Z,2846
2018-07-16T14:48:42.436Z,2868
2018-07-16T14:48:56.364Z,2894
2018-07-16T14:49:07.568Z,2914
2018-07-16T14:49:18.595Z,2944
2018-07-16T14:49:32.557Z,2988
2018-07-16T14:49:46.528Z,3016
2018-07-16T14:49:57.836Z,3051
2018-07-16T14:50:08.933Z,3094
2018-07-16T14:50:20.159Z,3129
2018-07-16T14:50:31.348Z,3160
2018-07-16T14:50:45.201Z,3207
2018-07-16T14:50:56.334Z,3264
2018-07-16T14:51:07.478Z,3309
2018-07-16T14:51:18.537Z,3350
2018-07-16T14:51:29.811Z,3402
2018-07-16T14:51:44.470Z,3448
2018-07-16T14:51:55.801Z,3494
2018-07-16T14:52:07.069Z,3533
2018-07-16T14:52:18.109Z,3574
2018-07-16T14:52:29.334Z,3613
2018-07-16T14:52:40.399Z,3660
2018-07-16T14:52:52.038Z,3703
2018-07-16T14:53:03.473Z,3745
2018-07-16T14:53:14.547Z,3772
2018-07-16T14:53:29.441Z,3824
2018-07-16T14:53:40.478Z,3857
2018-07-16T14:53:51.818Z,3897
2018-07-16T14:54:02.848Z,3935
2018-07-16T14:54:14.123Z,3966
2018-07-16T14:54:25.302Z,4019
2018-07-16T14:54:36.384Z,4051
2018-07-16T14:54:50.543Z,4139
2018-07-16T14:55:01.915Z,4173
2018-07-16T14:55:17.732Z,4219
2018-07-16T14:55:32.347Z,4275
2018-07-16T14:55:44.496Z,4324
2018-07-16T14:55:55.950Z,4377
2018-07-16T14:56:06.990Z,4422
2018-07-16T14:56:18.147Z,4483
2018-07-16T14:56:29.225Z,4534
2018-07-16T14:56:40.278Z,4593
2018-07-16T14:56:51.458Z,4637
2018-07-16T14:57:03.106Z,4684
2018-07-16T14:57:14.100Z,4735
2018-07-16T14:57:26.205Z,4796
2018-07-16T14:57:37.208Z,4861
2018-07-16T14:57:48.217Z,4886
2018-07-16T14:57:59.394Z,4935
2018-07-16T14:58:10.535Z,253054
2018-07-16T14:58:21.861Z,253113
2018-07-16T14:58:32.856Z,253141
2018-07-16T14:58:44.415Z,253199
2018-07-16T14:58:56.994Z,253245
2018-07-16T14:59:08.034Z,253283
2018-07-16T14:59:19.598Z,253351
2018-07-16T14:59:32.293Z,253400
2018-07-16T14:59:43.353Z,253458
2018-07-16T14:59:54.967Z,253512
2018-07-16T15:00:06.027Z,253562
2018-07-16T15:00:17.142Z,253620
2018-07-16T15:00:28.159Z,253677
2018-07-16T15:00:39.182Z,253738
2018-07-16T15:00:53.684Z,253828
2018-07-16T15:01:04.697Z,253879
2018-07-16T15:01:15.744Z,253932
2018-07-16T15:01:26.851Z,254002
2018-07-16T15:01:37.909Z,254063
2018-07-16T15:01:51.789Z,254140
2018-07-16T15:02:03.377Z,254195
2018-07-16T15:02:14.459Z,254260
2018-07-16T15:02:25.479Z,254304
2018-07-16T15:02:36.484Z,254366
2018-07-16T15:02:48.092Z,254434
2018-07-16T15:02:59.103Z,254468
2018-07-16T15:03:10.107Z,254535
2018-07-16T15:03:21.202Z,254576
2018-07-16T15:03:32.250Z,254640
2018-07-16T15:03:43.121Z,254697
2018-07-16T15:03:54.170Z,254756
2018-07-16T15:04:07.899Z,254807
2018-07-16T15:04:18.885Z,254886
2018-07-16T15:04:29.918Z,254925
2018-07-16T15:04:41.043Z,255003
2018-07-16T15:04:52.056Z,255058
2018-07-16T15:05:03.164Z,255108
2018-07-16T15:05:17.880Z,255178
2018-07-16T15:05:32.557Z,255238
2018-07-16T15:05:44.058Z,255296
2018-07-16T15:05:55.091Z,255347
2018-07-16T15:06:06.091Z,255409
2018-07-16T15:06:20.780Z,255485
2018-07-16T15:06:31.796Z,255543
2018-07-16T15:06:44.803Z,255619
2018-07-16T15:06:58.680Z,255691
2018-07-16T15:07:09.504Z,255736
2018-07-16T15:07:21.100Z,255803
2018-07-16T15:07:35.484Z,255871
2018-07-16T15:07:46.487Z,255931
2018-07-16T15:07:57.495Z,255986
2018-07-16T15:08:08.343Z,256036
2018-07-16T15:08:19.411Z,256102
2018-07-16T15:08:30.687Z,47310
2018-07-16T15:08:41.687Z,47793
2018-07-16T15:08:52.655Z,48677
2018-07-16T15:09:03.624Z,49167
2018-07-16T15:09:14.690Z,49827
2018-07-16T15:09:25.650Z,50334
2018-07-16T15:09:36.683Z,51033
2018-07-16T15:09:47.644Z,51484
2018-07-16T15:09:58.592Z,52203
2018-07-16T15:10:09.555Z,52884
2018-07-16T15:10:20.672Z,53451
2018-07-16T15:10:31.718Z,54143
2018-07-16T15:10:42.723Z,54642
2018-07-16T15:10:53.802Z,55123
2018-07-16T15:11:04.816Z,55679
2018-07-16T15:11:15.854Z,56321
2018-07-16T15:11:26.884Z,57156
2018-07-16T15:11:37.972Z,57663
2018-07-16T15:11:52.746Z,58410
2018-07-16T15:12:03.707Z,58878
2018-07-16T15:12:14.621Z,59406
2018-07-16T15:12:25.603Z,60098
2018-07-16T15:12:36.571Z,60674
2018-07-16T15:12:47.589Z,61130
2018-07-16T15:12:58.623Z,62093
2018-07-16T15:13:09.651Z,62821
2018-07-16T15:13:20.609Z,63566
2018-07-16T15:13:31.597Z,64355
2018-07-16T15:13:42.780Z,65117
2018-07-16T15:13:53.973Z,65837
2018-07-16T15:14:06.090Z,65481
2018-07-16T15:14:17.208Z,65735
2018-07-16T15:14:28.441Z,66210
2018-07-16T15:14:39.595Z,66495
2018-07-16T15:14:50.795Z,67136
2018-07-16T15:15:02.442Z,67870
2018-07-16T15:15:13.492Z,68179
2018-07-16T15:15:24.590Z,68690
2018-07-16T15:15:36.302Z,69336
2018-07-16T15:15:51.094Z,70519
2018-07-16T15:16:02.375Z,72445
2018-07-16T15:16:13.473Z,72893
2018-07-16T15:49:13.340Z,93459
2018-07-16T15:49:24.356Z,92593
2018-07-16T15:49:35.443Z,91988
2018-07-16T15:49:46.449Z,91363
2018-07-16T15:50:00.812Z,90860
2018-07-16T15:50:11.907Z,89832
2018-07-16T15:50:23.875Z,89247
2018-07-16T15:50:39.003Z,88522
2018-07-16T15:50:50.420Z,87857
2018-07-16T15:51:03.350Z,86547
2018-07-16T15:51:16.632Z,86144
2018-07-16T15:51:28.199Z,85176
2018-07-16T15:51:39.744Z,84733
2018-07-16T15:51:51.377Z,84310
2018-07-16T15:52:03.923Z,83604
2018-07-16T15:52:22.767Z,82194
2018-07-16T15:52:38.269Z,81508
2018-07-16T15:52:55.963Z,80763
2018-07-16T15:53:07.065Z,80219
2018-07-16T15:53:18.066Z,79151
2018-07-16T15:53:29.076Z,78462
2018-07-16T15:53:40.644Z,78263
2018-07-16T15:53:51.741Z,77545
2018-07-16T15:54:06.838Z,76231
2018-07-16T15:54:17.986Z,75240
2018-07-16T15:54:29.037Z,74471
2018-07-16T15:54:40.048Z,74124
2018-07-16T15:54:54.791Z,73158
2018-07-16T15:55:05.787Z,72390
2018-07-16T15:55:16.798Z,71671
2018-07-16T15:55:28.151Z,70803
2018-07-16T15:55:38.994Z,70580
2018-07-16T15:55:50.013Z,70407
2018-07-16T15:56:01.523Z,70456
2018-07-16T15:56:12.588Z,69762
2018-07-16T15:56:23.347Z,69564
2018-07-16T15:56:34.390Z,68721
2018-07-16T15:56:45.410Z,68102
2018-07-16T15:57:00.042Z,67036
2018-07-16T15:57:12.081Z,66863
2018-07-16T15:57:23.175Z,67111
2018-07-16T15:57:37.772Z,66169
2018-07-16T15:57:48.903Z,65747
2018-07-16T15:58:00.353Z,65351
2018-07-16T15:58:11.898Z,65673
2018-07-16T15:58:22.917Z,64929
2018-07-16T15:58:33.853Z,64012
2018-07-16T15:58:45.735Z,63740
2018-07-16T15:59:00.651Z,63046
2018-07-16T15:59:12.690Z,62897
2018-07-16T15:59:25.187Z,63442
2018-07-16T15:59:37.263Z,62724
2018-07-16T15:59:48.315Z,62278
2018-07-16T15:59:59.676Z,62327
2018-07-16T16:00:10.699Z,62674
2018-07-16T16:00:21.636Z,62451
2018-07-16T16:00:32.533Z,62228
2018-07-16T16:00:43.614Z,62030
2018-07-16T16:00:54.828Z,61782
2018-07-16T16:01:06.012Z,61906
2018-07-16T16:01:17.012Z,60766
2018-07-16T16:01:28.038Z,60047
2018-07-16T16:01:39.583Z,60295
2018-07-16T16:01:50.567Z,59873
2018-07-16T16:02:01.575Z,60320
2018-07-16T16:02:15.393Z,59403
2018-07-16T16:02:26.410Z,59353
2018-07-16T16:02:38.403Z,58485
2018-07-16T16:02:50.489Z,57990
2018-07-16T16:03:01.372Z,57841
2018-07-16T16:03:12.678Z,57023
2018-07-16T16:03:23.688Z,56651
2018-07-16T16:03:35.704Z,55958
2018-07-16T16:03:49.527Z,55462
2018-07-16T16:04:03.409Z,59700
2018-07-16T16:04:14.372Z,67978
2018-07-16T16:04:25.329Z,63170
2018-07-16T16:04:36.433Z,63839
2018-07-16T16:04:47.427Z,52717
2018-07-16T16:04:58.419Z,52576
2018-07-16T16:05:09.407Z,51301
2018-07-16T16:05:20.944Z,51754
2018-07-16T16:05:31.928Z,51216
2018-07-16T16:05:42.962Z,51273
2018-07-16T16:05:53.990Z,51358
2018-07-16T16:06:04.942Z,50423
2018-07-16T16:06:16.029Z,50083
2018-07-16T16:06:26.991Z,49460
2018-07-16T16:06:37.961Z,49573
2018-07-16T16:06:48.974Z,49290
2018-07-16T16:07:00.028Z,48440
2018-07-16T16:07:11.130Z,47590
2018-07-16T16:07:22.162Z,46938
2018-07-16T16:07:33.193Z,46598
2018-07-16T16:07:44.091Z,46485
2018-07-16T16:07:55.082Z,45522
2018-07-16T16:08:06.547Z,45720
2018-07-16T16:08:18.098Z,43794
2018-07-16T16:08:29.147Z,43199
2018-07-16T16:08:53.318Z,43511
2018-07-16T16:09:05.863Z,43199
2018-07-16T16:09:18.120Z,43114
2018-07-16T16:09:30.673Z,43369
2018-07-16T16:09:50.605Z,43595
2018-07-16T16:10:01.636Z,44162
2018-07-16T16:10:12.726Z,43794
2018-07-16T16:10:23.711Z,43822
2018-07-16T16:10:34.675Z,44360
2018-07-16T16:10:45.703Z,44700
2018-07-16T16:10:56.673Z,45239
2018-07-16T16:11:08.223Z,45182
2018-07-16T16:11:22.061Z,44927
2018-07-16T16:11:33.012Z,44814
2018-07-16T16:11:44.009Z,44700
2018-07-16T16:11:58.727Z,45012
2018-07-16T16:12:12.711Z,44389
2018-07-16T16:12:23.663Z,43964
2018-07-16T16:12:38.295Z,43992
2018-07-16T16:12:49.155Z,43284
2018-07-16T16:13:00.116Z,43142
2018-07-16T16:13:11.086Z,42547
2018-07-16T16:13:21.995Z,42491
2018-07-16T16:13:32.906Z,41527
2018-07-16T16:13:43.836Z,41272
2018-07-16T16:13:54.806Z,40621
2018-07-16T16:14:05.835Z,40536
2018-07-16T16:14:16.772Z,39743
2018-07-16T16:14:27.730Z,39856
2018-07-16T16:14:38.720Z,39998
2018-07-16T16:14:49.696Z,39403
2018-07-16T16:15:00.703Z,40451
2018-07-16T16:15:12.283Z,39431
2018-07-16T16:15:23.737Z,39063
2018-07-16T16:15:34.632Z,39346
2018-07-16T16:15:45.617Z,38978
2018-07-16T16:15:56.582Z,38638
2018-07-16T16:16:07.512Z,37618
2018-07-16T16:16:18.420Z,37476
2018-07-16T16:16:29.427Z,37731
2018-07-16T16:16:40.384Z,37193
2018-07-16T16:16:58.885Z,36258
2018-07-16T16:17:12.862Z,36542
2018-07-16T16:17:23.833Z,36032
2018-07-16T16:17:34.858Z,35635
2018-07-16T16:17:47.204Z,35437
2018-07-16T16:17:59.638Z,36032
2018-07-16T16:18:10.639Z,35663
2018-07-16T16:18:21.575Z,36372
2018-07-16T16:18:32.434Z,37023
2018-07-16T16:18:43.511Z,37561
2018-07-16T16:18:54.461Z,37193
2018-07-16T16:19:05.508Z,37136
2018-07-16T16:19:16.579Z,37363
2018-07-16T16:19:27.536Z,37958
2018-07-16T16:19:38.510Z,37958
2018-07-16T16:19:49.510Z,37590
2018-07-16T16:20:01.020Z,38071
2018-07-16T16:20:12.050Z,38921
2018-07-16T16:20:22.984Z,39176
2018-07-16T16:20:34.012Z,39601
2018-07-16T16:20:44.985Z,40366
2018-07-16T16:20:55.891Z,41754
2018-07-16T16:21:06.962Z,42207
2018-07-16T16:21:17.848Z,42887
2018-07-16T16:21:28.652Z,43397
2018-07-16T16:21:39.752Z,43765
2018-07-16T16:21:50.764Z,44757
2018-07-16T16:22:01.731Z,45267
2018-07-16T16:22:12.752Z,46457
2018-07-16T16:22:23.860Z,46202
2018-07-16T16:22:34.832Z,46372
2018-07-16T16:22:45.850Z,46910
2018-07-16T16:22:56.788Z,47363
2018-07-16T16:23:07.807Z,47901
2018-07-16T16:23:18.833Z,48723
2018-07-16T16:23:29.781Z,49771
2018-07-16T16:23:41.327Z,51839
2018-07-16T16:23:52.371Z,53171
2018-07-16T16:24:03.820Z,53341
2018-07-16T16:24:14.798Z,54077
2018-07-16T16:24:25.777Z,53737
2018-07-16T16:24:36.752Z,53907
2018-07-16T16:24:50.609Z,53341
2018-07-16T16:25:01.598Z,53426
2018-07-16T16:25:19.326Z,54106
2018-07-16T16:25:30.252Z,55412
2018-07-16T16:25:41.597Z,55536
2018-07-16T16:25:55.455Z,56379
2018-07-16T16:26:06.461Z,56404
2018-07-16T16:26:17.498Z,57098
2018-07-16T16:26:28.579Z,56329
2018-07-16T16:26:39.333Z,56751
2018-07-16T16:26:54.088Z,57271
2018-07-16T16:27:05.126Z,56974
2018-07-16T16:27:16.326Z,57767
2018-07-16T16:27:27.401Z,58510
2018-07-16T16:27:39.547Z,59006
2018-07-16T16:27:50.619Z,59403
2018-07-16T16:28:01.642Z,59650
2018-07-16T16:28:12.633Z,59675
2018-07-16T16:28:23.820Z,60320
2018-07-16T16:28:34.796Z,60840
2018-07-16T16:28:45.765Z,61038
2018-07-16T16:28:56.788Z,61435
2018-07-16T16:29:07.872Z,61237
2018-07-16T16:29:18.829Z,62922
2018-07-16T16:29:29.769Z,63046
2018-07-16T16:29:40.763Z,63368
2018-07-16T16:29:52.139Z,63690
2018-07-16T16:30:03.056Z,64211
2018-07-16T16:30:14.318Z,65053
2018-07-16T16:30:25.336Z,66094
2018-07-16T16:30:36.384Z,67086
2018-07-16T16:30:47.344Z,67036
2018-07-16T16:30:58.368Z,67334
2018-07-16T16:31:09.418Z,67928
2018-07-16T16:31:20.559Z,68548
2018-07-16T16:31:34.396Z,69242
2018-07-16T16:31:45.392Z,69862
2018-07-16T16:31:56.361Z,70729
2018-07-16T16:32:07.426Z,71051
2018-07-16T16:32:18.436Z,71596
2018-07-16T16:32:29.432Z,71720
2018-07-16T16:32:44.292Z,71572
2018-07-16T16:32:55.275Z,71993
2018-07-16T16:33:06.602Z,72637
2018-07-16T16:33:17.614Z,72910
2018-07-16T16:33:31.556Z,74447
2018-07-16T16:33:42.806Z,74918
2018-07-16T16:33:54.344Z,75190
2018-07-16T16:34:05.338Z,75438
2018-07-16T16:34:16.490Z,76182
2018-07-16T16:34:27.594Z,77247
2018-07-16T16:34:38.712Z,78140
2018-07-16T16:34:50.174Z,79473
2018-07-16T16:35:01.271Z,79634
2018-07-16T16:35:12.440Z,80017
2018-07-16T16:35:23.510Z,80904
2018-07-16T16:35:34.512Z,82274
2018-07-16T16:35:45.456Z,83443
2018-07-16T16:35:56.470Z,84350
2018-07-16T16:36:07.449Z,85620
2018-07-16T16:36:18.424Z,86245
2018-07-16T16:36:29.515Z,86224
2018-07-16T16:36:40.698Z,87776
2018-07-16T16:36:52.218Z,88542
2018-07-16T16:37:06.171Z,87393
2018-07-16T16:37:18.520Z,86224
2018-07-16T16:37:29.656Z,86184
2018-07-16T16:37:40.699Z,85378
2018-07-16T16:37:51.638Z,84552
2018-07-16T16:38:02.697Z,84531
2018-07-16T16:38:14.049Z,84874
2018-07-16T16:38:24.973Z,85459
2018-07-16T16:38:36.486Z,86144
2018-07-16T16:38:47.476Z,86406
2018-07-16T16:39:02.348Z,86910
2018-07-16T16:39:14.397Z,86930
2018-07-16T16:39:25.864Z,87837
2018-07-16T16:39:36.883Z,88300
2018-07-16T16:39:47.935Z,89147
2018-07-16T16:39:58.986Z,89671
2018-07-16T16:40:10.160Z,90114
2018-07-16T16:40:22.234Z,90195
2018-07-16T16:40:36.032Z,90698
2018-07-16T16:40:47.059Z,91061
2018-07-16T16:40:58.154Z,91182
2018-07-16T16:41:09.160Z,90799
2018-07-16T16:41:20.122Z,91363
2018-07-16T16:41:32.160Z,92250
2018-07-16T16:41:43.148Z,92734
2018-07-16T16:41:54.543Z,92956
2018-07-16T16:42:08.385Z,94125
2018-07-16T16:42:19.369Z,95535
2018-07-16T16:42:33.451Z,96583
2018-07-16T16:42:44.510Z,97530
2018-07-16T16:42:56.514Z,98528
2018-07-16T16:43:14.304Z,100453
2018-07-16T16:43:25.306Z,101128
2018-07-16T16:43:36.416Z,102023
2018-07-16T16:43:50.784Z,105861
2018-07-16T16:44:02.306Z,109332
2018-07-16T16:44:20.825Z,1094
2018-07-16T16:44:32.024Z,1224
2018-07-16T16:44:43.183Z,1431
2018-07-16T16:44:54.074Z,1462
2018-07-16T16:45:05.037Z,1396
2018-07-16T16:45:15.983Z,1291
2018-07-16T16:45:27.237Z,1141
2018-07-16T16:45:41.284Z,1183
2018-07-16T16:45:52.956Z,1288
2018-07-16T16:46:04.098Z,1519
2018-07-16T16:46:15.103Z,1714
2018-07-16T16:46:26.165Z,1823
2018-07-16T16:46:40.016Z,1927
2018-07-16T16:46:51.132Z,2076
2018-07-16T16:47:02.172Z,2211
2018-07-16T16:47:13.202Z,2082
2018-07-16T16:47:24.145Z,1851
2018-07-16T16:47:35.204Z,1657
2018-07-16T16:47:46.303Z,1524
2018-07-16T16:47:57.103Z,1459
2018-07-16T16:48:08.218Z,1315
2018-07-16T16:48:19.235Z,1171
2018-07-16T16:48:31.308Z,1074
2018-07-16T16:48:42.498Z,981
2018-07-16T16:48:53.907Z,1122
2018-07-16T16:49:04.987Z,1404
2018-07-16T16:49:19.732Z,1903
2018-07-16T16:49:30.738Z,2226
2018-07-16T16:49:44.992Z,2261
2018-07-16T16:49:56.028Z,2175
2018-07-16T16:50:07.224Z,1859
2018-07-16T16:50:18.348Z,1624
2018-07-16T16:50:29.342Z,1486
2018-07-16T16:50:40.302Z,1373
2018-07-16T16:50:51.380Z,1248
2018-07-16T16:51:02.484Z,1222
2018-07-16T16:51:13.485Z,1153
2018-07-16T16:51:24.494Z,1119
2018-07-16T16:51:35.580Z,1136
2018-07-16T16:51:46.596Z,1399
2018-07-16T16:51:57.585Z,1675
2018-07-16T16:52:08.694Z,2079
2018-07-16T16:52:19.809Z,1904
2018-07-16T16:52:30.844Z,1620
2018-07-16T16:52:41.966Z,1486
2018-07-16T16:52:53.986Z,1392
2018-07-16T16:53:05.066Z,1159
2018-07-16T16:53:16.565Z,968
2018-07-16T16:53:27.589Z,564
2018-07-16T16:53:38.631Z,166
2018-07-16T16:53:49.648Z,56
2018-07-16T16:54:04.441Z,262
2018-07-16T16:54:15.412Z,648
2018-07-16T16:54:26.378Z,704
2018-07-16T16:54:37.434Z,564
2018-07-16T16:54:48.486Z,347
2018-07-16T16:54:59.452Z,80
2018-07-16T16:55:10.570Z,262088
2018-07-16T16:55:22.564Z,261913
2018-07-16T16:55:33.607Z,261580
2018-07-16T16:55:45.216Z,261117
2018-07-16T16:55:56.265Z,260808
2018-07-16T16:56:07.386Z,260920
2018-07-16T16:56:18.267Z,261478
2018-07-16T16:56:29.328Z,262058
2018-07-16T16:56:40.332Z,428
2018-07-16T16:56:54.605Z,894
2018-07-16T16:57:05.580Z,1018
2018-07-16T16:57:19.435Z,937
2018-07-16T16:57:30.378Z,838
2018-07-16T16:57:41.368Z,816
2018-07-16T16:57:52.322Z,739
2018-07-16T16:58:04.294Z,701
2018-07-16T16:58:18.165Z,598
2018-07-16T16:58:29.205Z,526
2018-07-16T16:58:40.656Z,160
2018-07-16T16:58:51.746Z,261895
2018-07-16T16:59:02.733Z,261658
2018-07-16T16:59:13.673Z,261504
2018-07-16T16:59:24.793Z,261379
2018-07-16T16:59:36.875Z,261307
2018-07-16T16:59:47.845Z,261253
2018-07-16T16:59:58.869Z,261271
2018-07-16T17:00:10.007Z,261098
2018-07-16T17:00:20.935Z,260616
2018-07-16T17:00:32.083Z,260005
2018-07-16T17:00:46.300Z,1468
2018-07-16T17:00:57.229Z,981
2018-07-16T17:01:08.183Z,686
2018-07-16T17:01:19.229Z,723
2018-07-16T17:01:30.260Z,1005
2018-07-16T17:01:41.304Z,1443
2018-07-16T17:01:52.326Z,1755
2018-07-16T17:02:03.374Z,1592
2018-07-16T17:02:15.329Z,1097
2018-07-16T17:02:26.389Z,424
2018-07-16T17:02:37.445Z,262101
2018-07-16T17:02:48.572Z,261713
2018-07-16T17:02:59.820Z,261625
2018-07-16T17:03:10.974Z,262100
2018-07-16T17:03:22.001Z,663
2018-07-16T17:03:33.085Z,1205
2018-07-16T17:03:44.287Z,1745
2018-07-16T17:03:55.201Z,1900
2018-07-16T17:04:09.346Z,2085
2018-07-16T17:04:20.466Z,259939
2018-07-16T17:04:31.791Z,260024
2018-07-16T17:04:42.861Z,259898
2018-07-16T17:04:53.929Z,1964
2018-07-16T17:05:05.981Z,1406
2018-07-16T17:05:17.086Z,1052
2018-07-16T17:05:28.244Z,842
2018-07-16T17:05:39.155Z,587
2018-07-16T17:05:53.070Z,262139
2018-07-16T17:06:04.170Z,261615
2018-07-16T17:06:15.161Z,261126
2018-07-16T17:06:26.266Z,261055
2018-07-16T17:06:37.244Z,261244
2018-07-16T17:06:48.327Z,261347
2018-07-16T17:06:59.370Z,261281
2018-07-16T17:07:10.630Z,261356
2018-07-16T17:07:21.672Z,261493
2018-07-16T17:07:32.701Z,261662
2018-07-16T17:07:43.806Z,261660
2018-07-16T17:07:54.829Z,261609
2018-07-16T17:08:05.848Z,261450
2018-07-16T17:08:16.926Z,261590
2018-07-16T17:08:28.064Z,261699
2018-07-16T17:08:39.161Z,261870
2018-07-16T17:08:50.398Z,262139
2018-07-16T17:09:02.559Z,145
2018-07-16T17:09:13.553Z,202
2018-07-16T17:09:24.665Z,318
2018-07-16T17:09:35.667Z,485
2018-07-16T17:09:46.790Z,521
2018-07-16T17:09:57.770Z,307
2018-07-16T17:10:08.810Z,261983
2018-07-16T17:10:19.858Z,261429
2018-07-16T17:10:30.917Z,260845
2018-07-16T17:10:41.968Z,260450
2018-07-16T17:10:52.962Z,260280
2018-07-16T17:11:05.248Z,260318
2018-07-16T17:11:20.078Z,260694
2018-07-16T17:11:31.118Z,260990
2018-07-16T17:11:42.126Z,261073
2018-07-16T17:11:53.216Z,261196
2018-07-16T17:12:04.307Z,261177
2018-07-16T17:12:18.266Z,261124
2018-07-16T17:12:29.337Z,261081
2018-07-16T17:12:40.498Z,260992
2018-07-16T17:12:51.548Z,260848
2018-07-16T17:13:02.622Z,260799
2018-07-16T17:13:13.591Z,260693
2018-07-16T17:13:24.697Z,260639
2018-07-16T17:13:35.817Z,260696
2018-07-16T17:13:46.947Z,260596
2018-07-16T17:14:01.671Z,260299
2018-07-16T17:14:15.741Z,259972
2018-07-16T17:14:26.801Z,259783
2018-07-16T17:14:38.021Z,259702
2018-07-16T17:14:49.032Z,259747
2018-07-16T17:15:00.332Z,259904
2018-07-16T17:15:11.886Z,260122
2018-07-16T17:15:25.930Z,260450
2018-07-16T17:15:36.927Z,260620
2018-07-16T17:15:48.098Z,260718
2018-07-16T17:15:59.345Z,260829
2018-07-16T17:16:14.083Z,260850
2018-07-16T17:16:25.058Z,260846
2018-07-16T17:16:39.811Z,260777
2018-07-16T17:16:50.846Z,260689
2018-07-16T17:17:02.085Z,260503
2018-07-16T17:17:14.706Z,260315
2018-07-16T17:17:25.809Z,260014
2018-07-16T17:17:37.035Z,259724
2018-07-16T17:17:50.994Z,259123
2018-07-16T17:18:02.119Z,258822
2018-07-16T17:18:13.345Z,71631
2018-07-16T17:18:24.435Z,188917
2018-07-16T17:18:35.556Z,189051
2018-07-16T17:18:47.373Z,189262
2018-07-16T17:19:02.393Z,187154
2018-07-16T17:19:20.058Z,186756
2018-07-16T17:19:31.116Z,186997
2018-07-16T17:19:45.912Z,185564
2018-07-16T17:19:56.935Z,185514
2018-07-16T17:20:11.075Z,184538
2018-07-16T17:20:25.758Z,184178
2018-07-16T17:20:36.972Z,184004
2018-07-16T17:20:48.075Z,183855
2018-07-16T17:20:59.183Z,183791
2018-07-16T17:21:13.049Z,186393
2018-07-16T17:21:24.669Z,186360
2018-07-16T17:21:35.706Z,186613
2018-07-16T17:21:47.291Z,186926
2018-07-16T17:21:58.448Z,187393
2018-07-16T17:22:09.663Z,187649
2018-07-16T17:22:21.204Z,187674
2018-07-16T17:22:32.224Z,187141
2018-07-16T17:22:43.278Z,185777
2018-07-16T17:22:54.322Z,183839
2018-07-16T17:23:08.455Z,71912
2018-07-16T17:23:19.625Z,70833
2018-07-16T17:23:30.639Z,70927
2018-07-16T17:23:41.787Z,71071
2018-07-16T17:23:52.831Z,71102
2018-07-16T17:24:03.847Z,70962
2018-07-16T17:24:15.089Z,71408
2018-07-16T17:24:26.132Z,71651
2018-07-16T17:24:38.960Z,71920
2018-07-16T17:24:56.964Z,69570
2018-07-16T17:25:07.862Z,68116
2018-07-16T17:25:19.336Z,67694
2018-07-16T17:25:30.455Z,67641
2018-07-16T17:25:41.891Z,67906
2018-07-16T17:25:53.293Z,68873
2018-07-16T17:26:04.524Z,69260
2018-07-16T17:26:15.549Z,69725
2018-07-16T17:26:29.517Z,70634
2018-07-16T17:26:44.371Z,70000
2018-07-16T17:26:59.377Z,69733
2018-07-16T17:27:14.332Z,70344
2018-07-16T17:27:28.762Z,69846
2018-07-16T17:27:40.088Z,68514
2018-07-16T17:27:51.442Z,65281
2018-07-16T17:28:02.610Z,62127
2018-07-16T17:28:13.761Z,59256
2018-07-16T17:28:24.878Z,57637
2018-07-16T17:28:36.502Z,57287
2018-07-16T17:28:47.620Z,58258
2018-07-16T17:28:58.870Z,60187
2018-07-16T17:29:10.188Z,61151
2018-07-16T17:29:21.339Z,62254
2018-07-16T17:29:34.585Z,62760
2018-07-16T17:29:45.877Z,62470
2018-07-16T17:29:56.965Z,61952
2018-07-16T17:30:08.092Z,61489
2018-07-16T17:30:19.281Z,61490
2018-07-16T17:30:34.372Z,62394
2018-07-16T17:30:45.514Z,62247
2018-07-16T17:30:56.779Z,62179
2018-07-16T17:31:07.963Z,61956
2018-07-16T17:31:19.302Z,61489
2018-07-16T17:31:30.408Z,60892
2018-07-16T17:31:41.658Z,60246
2018-07-16T17:31:52.898Z,59316
2018-07-16T17:32:07.025Z,57897
2018-07-16T17:32:18.189Z,56720
2018-07-16T17:32:29.340Z,56060
2018-07-16T17:32:40.448Z,55682
2018-07-16T17:32:53.123Z,55814
2018-07-16T17:33:04.322Z,56317
2018-07-16T17:33:15.452Z,56561
2018-07-16T17:33:29.587Z,56036
2018-07-16T17:33:41.303Z,55452
2018-07-16T17:33:56.030Z,54646
2018-07-16T17:34:09.894Z,54627
2018-07-16T17:34:21.079Z,54265
2018-07-16T17:34:35.530Z,53753
2018-07-16T17:34:46.593Z,52790
2018-07-16T17:35:01.594Z,50313
2018-07-16T17:35:14.071Z,49327
2018-07-16T17:35:25.230Z,48355
2018-07-16T17:35:36.289Z,48333
2018-07-16T17:35:47.391Z,48994
2018-07-16T17:35:58.979Z,49690
2018-07-16T17:36:10.138Z,49748
2018-07-16T17:36:21.307Z,49491
2018-07-16T17:36:32.404Z,48863
2018-07-16T17:36:43.513Z,48362
2018-07-16T17:36:54.693Z,47764
2018-07-16T17:37:05.750Z,47152
2018-07-16T17:37:16.792Z,46728
2018-07-16T17:37:27.868Z,46555
2018-07-16T17:37:38.916Z,46160
2018-07-16T17:37:50.053Z,45490
2018-07-16T17:38:04.477Z,44693
2018-07-16T17:38:15.601Z,44041
2018-07-16T17:38:27.198Z,43434
2018-07-16T17:38:38.900Z,43368
2018-07-16T17:38:50.045Z,43084
2018-07-16T17:39:01.133Z,42540
2018-07-16T17:39:12.271Z,42117
2018-07-16T17:39:26.376Z,41652
2018-07-16T17:39:40.817Z,41287
2018-07-16T17:39:52.136Z,41759
2018-07-16T17:40:03.335Z,41711
2018-07-16T17:40:14.881Z,41796
2018-07-16T17:40:26.122Z,42017
2018-07-16T17:40:37.746Z,42128
2018-07-16T17:40:48.763Z,41931
2018-07-16T17:40:59.948Z,41639
2018-07-16T17:41:11.093Z,41199
2018-07-16T17:41:22.215Z,40673
2018-07-16T17:41:36.231Z,39773
2018-07-16T17:41:47.304Z,39002
2018-07-16T17:41:58.356Z,38427
2018-07-16T17:42:09.500Z,38027
2018-07-16T17:42:20.665Z,37835
2018-07-16T17:42:31.998Z,37532
2018-07-16T17:42:43.234Z,37099
2018-07-16T17:42:54.354Z,36691
2018-07-16T17:43:05.383Z,36209
2018-07-16T17:43:16.549Z,35370
2018-07-16T17:43:27.604Z,34963
2018-07-16T17:43:38.714Z,34876
2018-07-16T17:43:49.925Z,34889
2018-07-16T17:44:03.908Z,35136
2018-07-16T17:44:14.954Z,34943
2018-07-16T17:44:26.161Z,34894